Nearby METAR Reports

 

LGTS - THESALONIKI, GR
Distance from station: ΑΝΑ 85km
Ενημερώθηκε: 16/06/2019 08:20
Αίθριος
Αίθριος
 Ανεμος από Α
Ανεμος: Α 7 km/h
Θερμοκρασία: 26°C
Σημείο Δρόσου: 17°C
Υγρασία: 58%
Βαρόμετρο: 1012 hPa
Περίληψη: Αίθριος
Visibility: greater than 10 km
2019/06/16 05:20 LGTS 160520Z 10004KT CAVOK 26/17 Q1012 NOSIG
LGAV - ATHENS, GR
Distance from station: ΑΝΑ 546km
Ενημερώθηκε: 16/06/2019 08:20
Αίθριος
Αίθριος
 Ανεμος από Β
Ανεμος: Β 15 km/h
Θερμοκρασία: 27°C
Heat Index: 28°C
Σημείο Δρόσου: 16°C
Υγρασία: 51%
Βαρόμετρο: 1011 hPa
Περίληψη: Αίθριος
Visibility: greater than 10 km
2019/06/16 05:20 LGAV 160520Z 36008KT CAVOK 27/16 Q1011 NOSIG
 
LGKZ - KOZANI, GR
Distance from station: ΝΔ 130km
Ενημερώθηκε: 15/06/2019 14:50
NOT Current
Μερικώς νεφελώδης
Μερικώς νεφελώδης
 Ανεμος από ΑΒΑ
Ανεμος: ΑΒΑ 9 km/h
Θερμοκρασία: 30°C
Heat Index: 29°C
Σημείο Δρόσου: 15°C
Υγρασία: 40%
Βαρόμετρο: 1016 hPa
Clouds: Μερικώς νεφελώδης
Visibility: 10 km
Cloud details: Few Clouds 762 m
Μερικώς νεφελώδης 2134 m
2019/06/15 11:50 LGKZ 151150Z 07005KT 9999 FEW025 SCT070 30/15 Q1016
LGIO - IOANNINA, GR
Distance from station: ΝΔ 265km
Ενημερώθηκε: 16/06/2019 08:20
Αίθριος
Αίθριος
 Ανεμος από varies
Ανεμος: varies 0 km/h
Θερμοκρασία: 21°C
Σημείο Δρόσου: 21°C
Υγρασία: 100%
Βαρόμετρο: 1014 hPa
Περίληψη: Αίθριος
Visibility: greater than 10 km
2019/06/16 05:20 LGIO 160520Z /////KT CAVOK 21/21 Q1014
 
LGKV - KABALA, GR
Distance from station: ΒΑ 220km
Ενημερώθηκε: 16/06/2019 08:20
Few Clouds
Few Clouds
 Ανεμος από calm
Ανεμος: Απνοια
Θερμοκρασία: 23°C
Σημείο Δρόσου: 19°C
Υγρασία: 78%
Βαρόμετρο: 1011 hPa
Clouds: Few Clouds
Visibility: 10 km
Cloud details: Few Clouds 914 m
2019/06/16 05:20 LGKV 160520Z 00000KT 9999 FEW030 23/19 Q1011
LGAL - ALEXANDROUPOLI, GR
Distance from station: ΒΑ 367km
Ενημερώθηκε: 16/06/2019 08:20
Few Clouds
Few Clouds
 Ανεμος από calm
Ανεμος: Απνοια
Θερμοκρασία: 23°C
Σημείο Δρόσου: 18°C
Υγρασία: 74%
Βαρόμετρο: 1011 hPa
Clouds: Few Clouds
Visibility: 10 km
Cloud details: Few Clouds 762 m
2019/06/16 05:20 LGAL 160520Z 00000KT 9999 FEW025 23/18 Q1011
 
LGSA - CHANIA,CRETE, GR
Distance from station: ΑΝΑ 866km
Ενημερώθηκε: 16/06/2019 08:20
Few Clouds
Few Clouds
 Ανεμος από ΒΒΔ
Ανεμος: ΒΒΔ 17 km/h
Θερμοκρασία: 25°C
Σημείο Δρόσου: 20°C
Υγρασία: 74%
Βαρόμετρο: 1010 hPa
Clouds: Few Clouds
Visibility: 10 km
Cloud details: Few Clouds 762 m
2019/06/16 05:20 LGSA 160520Z 33009KT 9999 FEW025 25/20 Q1010
LGIR - HERAKLIO, CRETE, GR
Distance from station: ΑΝΑ 882km
Ενημερώθηκε: 16/06/2019 08:20
Μερικώς νεφελώδης
Μερικώς νεφελώδης
 Ανεμος από ΔΒΔ
Ανεμος: ΔΒΔ 24 km/h
Θερμοκρασία: 24°C
Σημείο Δρόσου: 20°C
Υγρασία: 78%
Βαρόμετρο: 1009 hPa
Clouds: Μερικώς νεφελώδης
Visibility: 10 km
Cloud details: Few Clouds 610 m
Μερικώς νεφελώδης 762 m
Μερικώς νεφελώδης 2438 m
2019/06/16 05:20 LGIR 160520Z 30013KT 9999 FEW020 SCT025 SCT080 24/20 Q1009 NOSIG
 
LGRP - RHODES, GR
Distance from station: ΑΝΑ 1.318km
Ενημερώθηκε: 16/06/2019 08:20
Αίθριος
Αίθριος
 Ανεμος από ΒΑ
Ανεμος: ΒΑ 9 km/h
Θερμοκρασία: 25°C
Σημείο Δρόσου: 19°C
Υγρασία: 69%
Βαρόμετρο: 1006 hPa
Περίληψη: Αίθριος
Visibility: greater than 10 km
2019/06/16 05:20 LGRP 160520Z 05005KT CAVOK 25/19 Q1006 NOSIG
LGLR - LARISSA, GR
Distance from station: ΝΔ 182km
Ενημερώθηκε: 16/06/2019 07:50
Few Clouds
Few Clouds
 Ανεμος από calm
Ανεμος: Απνοια
Θερμοκρασία: 25°C
Σημείο Δρόσου: 17°C
Υγρασία: 61%
Βαρόμετρο: 1013 hPa
Clouds: Few Clouds
Visibility: 10 km
Cloud details: Few Clouds 2438 m
2019/06/16 04:50 LGLR 160450Z 00000KT 9999 FEW080 25/17 Q1013 RMK FEW180 BLU